Captain Cook, HI

3:32 PM HST on July 27, 2015 (GMT -1000)
Captain Cook | | Change Station
CLOSE
Current Station
Personal Weather Station
Location: Captain Cook, HI
Elevation: 915 ft
Nearby Weather Stations
Active Advisory: High Surf Advisory Active Notice: Record Report

Elev 915 ft 19.31 °N, 155.88 °W | Updated 2 minutes ago

Overcast
Overcast
82.1 °F
Feels Like 86 °F
N
3.0
Wind Variable Wind from SE
Gusts 7.0 mph

Today
High -- | Low -- °F
--% Chance of Precip.
Yesterday
High -- | Low -- °F
Precip. -- in
5:58 AM 7:01 PM
Waxing Gibbous, 86% visible
Pressure 29.94 in
Visibility 10.0 miles
Clouds Mostly Cloudy 2600 ft
Mostly Cloudy 3400 ft
Overcast 4300 ft
Heat Index 86 °F
Dew Point 70 °F
Humidity 68%
Rainfall 0.00 in
Snow Depth Not available.
UV 3.5 out of 12
Pollen Not available.
Air Quality Not available.
Flu Activity Not available.
SPECI PHTO 280121Z 00000KT 10SM BKN026 BKN034 OVC043 27/23 A2994 RMK AO2 T02720233

More Conditions Fewer Conditions

Pressure 29.94 in
Visibility 10.0 miles
Clouds Mostly Cloudy 2600 ft
Mostly Cloudy 3400 ft
Overcast 4300 ft
Heat Index 86 °F
Dew Point 70 °F
Humidity 68%
Rainfall 0.00 in
Snow Depth Not available.
UV 3.5 out of 12
Pollen Not available.
Air Quality Not available.
Flu Activity Not available.
SPECI PHTO 280121Z 00000KT 10SM BKN026 BKN034 OVC043 27/23 A2994 RMK AO2 T02720233

More Conditions Fewer Conditions

10-Day Weather Forecast

×

Almanac

Astronomy

Jul. 27, 2015 Rise Set
Actual Time
Civil Twilight
Nautical Twilight
Astronomical Twilight
Moon
Length of Visible Light
Length of Day
Tomorrow will be .
, % of the Moon is Illuminated

Today's Extremes

State Highs State Lows

Community

WunderPhotos

Upload Photos

1,841,757 photos uploaded!

WunderBlogs® & News

Nearby

Air Quality

  Air Quality AQ Index Pollutant
Not available.

Snow Depth

Station Depth Elevation

Earthquake Activity

City Distance Mag. Time & Date
Minimum magnitude displayed is 2.5.

Coastal Water Temperatures

Place Temperature

Stations

Nearby Weather Stations

Station Location Temp. Windchill Dew Point Humidity Wind Precip. Elev Updated Type
                   
High Surf Advisory
Statement as of 3:31 PM HST on July 27, 2015

... High surf advisory remains in effect until 6 am HST Tuesday...

A high surf advisory remains in effect until 6 am HST Tuesday.

* Surf... along south facing shores of all islands... 6 to 9 feet
tonight.

* Timing... through tonight.

* Impacts... moderate... expect strong breaking waves... shore
break... and strong longshore and rip currents making swimming
difficult and dangerous.

Precautionary/preparedness actions...

Beachgoers... swimmers... and surfers should heed all advice given
by ocean safety officials and exercise caution. Know your
limits... when in doubt... do not go out.


Wroe